Time;durP1;ratioP1;P1;durP2;ratioP2;P2;SDS_P1;SDS_P2;PMS_P1;PMS_P2;Temp;Humidity;BMP_temperature;BMP_pressure;BME280_temperature;BME280_humidity;BME280_pressure;Samples;Min_cycle;Max_cycle;Signal;HPM_P1;HPM_P2
2022/05/08 00:00:58;;;;;;;27.37;10.00;;;;;;;4.80;100.00;101938.41;1825873;78;20969;-81
2022/05/08 00:03:24;;;;;;;26.50;8.20;;;;;;;4.76;100.00;101943.78;1825848;78;21023;-81
2022/05/08 00:05:50;;;;;;;27.98;8.20;;;;;;;4.71;100.00;101940.36;1826155;78;20955;-81
2022/05/08 00:08:16;;;;;;;27.15;8.40;;;;;;;4.66;100.00;101936.59;1826042;78;21665;-82
2022/05/08 00:10:42;;;;;;;20.35;7.87;;;;;;;4.64;100.00;101939.95;1825895;78;21033;-81
2022/05/08 00:13:09;;;;;;;27.02;8.08;;;;;;;4.62;100.00;101943.30;1825929;78;21480;-84
2022/05/08 00:15:36;;;;;;;34.20;8.73;;;;;;;4.60;100.00;101944.84;1825559;78;21067;-82
2022/05/08 00:18:02;;;;;;;28.00;8.75;;;;;;;4.56;100.00;101944.91;1826080;78;21030;-82
2022/05/08 00:20:28;;;;;;;29.82;8.78;;;;;;;4.51;100.00;101949.97;1826221;77;21705;-81
2022/05/08 00:22:54;;;;;;;25.43;8.25;;;;;;;4.42;100.00;101938.56;1826053;78;21132;-82
2022/05/08 00:25:21;;;;;;;26.73;8.53;;;;;;;4.35;100.00;101925.63;1825963;78;20837;-81
2022/05/08 00:27:47;;;;;;;29.95;8.55;;;;;;;4.35;100.00;101925.63;1825488;78;21050;-82
2022/05/08 00:30:14;;;;;;;25.10;8.10;;;;;;;4.44;100.00;101936.55;1825887;78;20959;-83
2022/05/08 00:32:40;;;;;;;24.82;8.43;;;;;;;4.44;100.00;101939.22;1826184;78;22019;-81
2022/05/08 00:35:09;;;;;;;25.20;8.40;;;;;;;4.40;100.00;101940.58;1825846;78;20995;-81
2022/05/08 00:37:36;;;;;;;27.52;8.45;;;;;;;4.33;100.00;101935.16;1825579;78;21487;-82
2022/05/08 00:40:02;;;;;;;22.50;7.70;;;;;;;4.31;100.00;101937.69;1825937;77;21410;-81
2022/05/08 00:42:28;;;;;;;24.32;8.38;;;;;;;4.25;100.00;101937.92;1831526;78;20980;-82
2022/05/08 00:44:54;;;;;;;30.85;8.95;;;;;;;4.23;100.00;101933.77;1831910;78;21022;-82
2022/05/08 00:47:20;;;;;;;24.30;8.70;;;;;;;4.28;100.00;101934.06;1832194;78;20960;-81
2022/05/08 00:49:46;;;;;;;23.42;8.50;;;;;;;4.29;100.00;101931.70;1832383;78;21130;-81
2022/05/08 00:52:13;;;;;;;30.12;9.18;;;;;;;4.28;100.00;101938.06;1832131;78;20959;-81
2022/05/08 00:54:39;;;;;;;25.72;8.35;;;;;;;4.23;100.00;101934.59;1831825;78;20975;-82
2022/05/08 00:59:35;;;;;;;22.42;7.58;;;;;;;4.15;100.00;101932.05;1782382;80;21026;-81
2022/05/08 01:02:01;;;;;;;19.60;6.70;;;;;;;4.09;100.00;101925.61;1782749;80;21130;-81
2022/05/08 01:04:27;;;;;;;19.50;7.03;;;;;;;4.08;100.00;101927.93;1782885;80;21467;-81
2022/05/08 01:06:53;;;;;;;24.63;8.25;;;;;;;4.09;100.00;101925.61;1757170;80;21020;-81
2022/05/08 01:09:19;;;;;;;25.90;8.53;;;;;;;4.10;100.00;101923.25;1782750;80;21848;-81
2022/05/08 01:11:45;;;;;;;31.23;9.00;;;;;;;4.09;100.00;101922.94;1782499;80;21077;-82
2022/05/08 01:14:13;;;;;;;31.30;8.15;;;;;;;4.13;100.00;101919.91;1782793;80;21514;-82
2022/05/08 01:16:40;;;;;;;26.68;8.70;;;;;;;4.10;100.00;101918.42;1782894;80;20995;-81
2022/05/08 01:19:06;;;;;;;33.73;9.20;;;;;;;4.03;100.00;101925.02;1782585;80;21097;-82
2022/05/08 01:21:41;;;;;;;30.77;9.45;;;;;;;4.01;100.00;101924.87;1782659;80;21350;-81
2022/05/08 01:24:08;;;;;;;37.48;9.95;;;;;;;4.02;100.00;101918.51;1782282;80;21039;-82
2022/05/08 01:26:35;;;;;;;41.40;10.93;;;;;;;4.03;100.00;101921.01;1782874;80;21037;-81
2022/05/08 01:29:02;;;;;;;35.70;10.88;;;;;;;4.08;100.00;101922.59;1782753;80;21015;-81
2022/05/08 01:31:31;;;;;;;35.43;11.20;;;;;;;4.07;100.00;101912.95;1782811;80;21029;-82
2022/05/08 01:33:58;;;;;;;29.87;9.93;;;;;;;4.02;100.00;101911.33;1782553;80;22015;-82
2022/05/08 01:36:24;;;;;;;35.08;10.60;;;;;;;4.01;100.00;101915.53;1782739;80;21053;-82
2022/05/08 01:38:50;;;;;;;34.85;10.32;;;;;;;4.02;100.00;101910.51;1782665;80;20903;-82
2022/05/08 01:41:16;;;;;;;27.90;10.00;;;;;;;4.03;100.00;101908.16;1781410;80;21035;-82
2022/05/08 01:43:42;;;;;;;33.60;9.73;;;;;;;4.04;100.00;101905.83;1780104;80;21498;-82
2022/05/08 01:46:09;;;;;;;27.02;8.88;;;;;;;4.03;100.00;101903.67;1780018;80;21139;-83
2022/05/08 01:48:35;;;;;;;32.65;10.35;;;;;;;3.97;100.00;101908.41;1779698;80;21015;-82
2022/05/08 01:51:03;;;;;;;32.55;10.30;;;;;;;3.96;100.00;101910.73;1780052;80;20892;-81
2022/05/08 01:53:34;;;;;;;35.10;11.55;;;;;;;3.95;100.00;101909.09;1780178;80;21117;-81
2022/05/08 01:56:05;;;;;;;32.08;10.23;;;;;;;3.92;100.00;101909.45;1780097;80;21068;-82
2022/05/08 01:58:30;;;;;;;32.83;10.50;;;;;;;3.85;100.00;101918.70;1780215;80;21070;-82
2022/05/08 02:00:59;;;;;;;35.38;11.65;;;;;;;3.82;100.00;101914.22;1780174;80;21066;-82
2022/05/08 02:03:25;;;;;;;37.95;11.25;;;;;;;3.81;100.00;101916.57;1815686;78;20963;-83
2022/05/08 02:05:52;;;;;;;34.90;11.38;;;;;;;3.82;100.00;101924.40;1829226;78;21019;-81
2022/05/08 02:08:18;;;;;;;38.58;11.68;;;;;;;3.74;100.00;101917.81;1829501;78;20991;-81
2022/05/08 02:10:45;;;;;;;38.80;12.03;;;;;;;3.78;100.00;101924.93;1829381;78;21123;-81
2022/05/08 02:13:12;;;;;;;32.13;11.48;;;;;;;3.79;100.00;101923.40;1829418;78;20948;-82
2022/05/08 02:15:39;;;;;;;37.78;11.22;;;;;;;3.75;100.00;101925.30;1829211;77;21529;-82
2022/05/08 02:18:08;;;;;;;32.28;12.35;;;;;;;3.70;100.00;101925.83;1829342;78;21062;-83
2022/05/08 02:20:37;;;;;;;33.13;13.78;;;;;;;3.74;100.00;101927.66;1817619;79;21030;-81
2022/05/08 02:23:03;;;;;;;33.33;11.28;;;;;;;3.80;100.00;101925.59;1818067;78;21128;-82
2022/05/08 02:25:30;;;;;;;30.80;10.90;;;;;;;3.83;100.00;101931.89;1817886;78;20962;-81
2022/05/08 02:27:56;;;;;;;40.78;13.28;;;;;;;3.85;100.00;101930.70;1818010;78;21713;-82
2022/05/08 02:30:25;;;;;;;36.33;12.82;;;;;;;3.92;100.00;101934.80;1818087;78;20951;-81
2022/05/08 02:32:53;;;;;;;33.78;12.30;;;;;;;3.95;100.00;101929.60;1817557;79;21471;-81
2022/05/08 02:35:21;;;;;;;32.78;12.82;;;;;;;3.97;100.00;101932.41;1817540;79;21308;-82
2022/05/08 02:37:50;;;;;;;43.08;12.13;;;;;;;4.02;100.00;101934.52;1817948;78;21106;-82
2022/05/08 02:40:20;;;;;;;28.12;9.75;;;;;;;4.09;100.00;101936.27;1817339;79;21026;-81
2022/05/08 02:42:47;;;;;;;28.45;9.60;;;;;;;4.18;100.00;101936.19;1812837;79;21023;-82
2022/05/08 02:45:13;;;;;;;27.90;10.85;;;;;;;4.27;100.00;101933.23;1812557;79;21070;-82
2022/05/08 02:47:40;;;;;;;33.65;11.22;;;;;;;4.36;100.00;101935.81;1812335;79;21110;-82
2022/05/08 02:50:12;;;;;;;32.05;10.13;;;;;;;4.46;100.00;101935.00;1811966;79;21034;-82
2022/05/08 02:52:41;;;;;;;35.40;11.65;;;;;;;4.55;100.00;101949.39;1812222;79;21448;-82
2022/05/08 03:00:40;;;;;;;30.43;10.50;;;;;;;4.88;100.00;101954.80;1812114;79;20987;-81
2022/05/08 03:03:08;;;;;;;30.08;11.28;;;;;;;4.98;100.00;101954.01;1812526;79;20939;-82
2022/05/08 03:05:34;;;;;;;36.13;11.78;;;;;;;5.08;100.00;101958.52;1812625;79;21046;-82
2022/05/08 03:08:01;;;;;;;40.63;12.47;;;;;;;5.18;100.00;101955.05;1812483;79;21027;-82
2022/05/08 03:10:28;;;;;;;36.00;13.72;;;;;;;5.28;100.00;101950.71;1812074;79;21468;-82
2022/05/08 03:12:54;;;;;;;42.62;14.05;;;;;;;5.41;100.00;101958.87;1812598;79;21116;-83
2022/05/08 03:15:22;;;;;;;37.90;12.43;;;;;;;5.59;100.00;101962.42;1812362;79;21014;-82
2022/05/08 03:17:48;;;;;;;39.10;11.48;;;;;;;5.73;100.00;101959.32;1823563;78;21481;-83
2022/05/08 03:20:14;;;;;;;35.23;13.00;;;;;;;5.88;100.00;101960.56;1829657;78;20863;-83
2022/05/08 03:22:40;;;;;;;34.60;13.03;;;;;;;6.08;100.00;101958.06;1802001;78;20974;-82
2022/05/08 03:25:06;;;;;;;42.58;12.25;;;;;;;6.41;100.00;101958.76;1829384;78;21135;-83
2022/05/08 03:27:32;;;;;;;36.68;13.22;;;;;;;6.88;100.00;101951.22;1829590;78;21466;-82
2022/05/08 03:29:58;;;;;;;43.65;13.88;;;;;;;7.35;100.00;101954.00;1829666;78;20966;-83
2022/05/08 03:32:24;;;;;;;41.65;13.72;;;;;;;7.51;100.00;101955.78;1802096;78;20859;-83
2022/05/08 03:34:50;;;;;;;45.88;14.75;;;;;;;7.98;100.00;101954.42;1829691;78;20977;-82
2022/05/08 03:37:17;;;;;;;41.48;15.18;;;;;;;8.79;100.00;101956.66;1829550;78;21132;-83
2022/05/08 03:43:24;;;;;;;34.35;13.88;;;;;;;9.96;100.00;101954.38;1815400;77;21641;-83
2022/05/08 03:45:50;;;;;;;42.48;15.15;;;;;;;11.10;100.00;101951.19;1814307;78;21004;-83
2022/05/08 03:48:18;;;;;;;43.73;14.80;;;;;;;11.78;100.00;101956.66;1814796;78;21244;-83
2022/05/08 03:50:45;;;;;;;45.00;15.75;;;;;;;12.48;100.00;101951.22;1814896;79;21640;-83
2022/05/08 03:53:11;;;;;;;33.90;13.93;;;;;;;13.17;100.00;101950.35;1814825;78;21039;-83
2022/05/08 03:55:37;;;;;;;42.45;15.53;;;;;;;13.52;99.12;101955.59;1814772;78;21460;-83
2022/05/08 03:58:04;;;;;;;40.52;13.75;;;;;;;13.70;96.58;101956.41;1814919;79;20973;-82
2022/05/08 04:00:30;;;;;;;37.23;14.40;;;;;;;14.02;88.54;101956.08;1814725;79;21031;-83
2022/05/08 04:02:56;;;;;;;39.53;14.60;;;;;;;14.26;86.84;101958.58;1814746;79;21809;-83
2022/05/08 04:05:22;;;;;;;41.18;14.10;;;;;;;14.83;85.20;101960.14;1814861;78;20873;-82
2022/05/08 04:07:48;;;;;;;36.30;14.68;;;;;;;15.40;79.28;101957.70;1814948;78;21541;-83
2022/05/08 04:10:14;;;;;;;34.45;14.83;;;;;;;16.23;80.87;101959.92;1814841;78;21051;-83
2022/05/08 04:12:43;;;;;;;31.97;14.20;;;;;;;17.22;76.34;101955.37;1815230;78;20988;-83
2022/05/08 04:17:38;;;;;;;40.95;14.33;;;;;;;18.43;62.66;101959.32;1774384;80;20976;-83
2022/05/08 04:20:07;;;;;;;43.25;14.50;;;;;;;18.82;60.59;101954.80;1774861;80;20903;-84
2022/05/08 04:25:18;;;;;;;30.17;13.30;;;;;;;19.27;54.25;101957.52;1774367;80;21527;-84
2022/05/08 04:27:44;;;;;;;29.12;12.55;;;;;;;20.25;54.94;101958.79;1774690;80;21143;-83
2022/05/08 04:30:11;;;;;;;30.32;12.45;;;;;;;20.97;51.06;101965.00;1748970;80;20918;-85
2022/05/08 04:32:36;;;;;;;34.98;12.90;;;;;;;20.88;48.41;101959.91;1774660;80;21046;-83
2022/05/08 04:35:03;;;;;;;39.58;13.62;;;;;;;21.24;46.35;101963.50;1774724;80;21577;-84
2022/05/08 04:37:29;;;;;;;28.52;12.65;;;;;;;21.19;46.77;101965.76;1774628;80;21065;-84
2022/05/08 04:39:55;;;;;;;30.20;12.78;;;;;;;21.84;46.02;101966.34;1774508;80;21899;-84
2022/05/08 04:42:21;;;;;;;29.23;12.95;;;;;;;22.64;45.63;101963.66;1774263;80;21021;-84
2022/05/08 04:44:48;;;;;;;42.43;13.53;;;;;;;23.28;42.74;101964.17;1773250;80;21125;-84
2022/05/08 04:47:13;;;;;;;40.12;12.40;;;;;;;23.85;42.34;101960.25;1766923;81;20912;-85
2022/05/08 04:49:39;;;;;;;28.77;13.08;;;;;;;24.14;40.41;101964.42;1764274;81;20995;-84
2022/05/08 04:52:06;;;;;;;28.80;12.60;;;;;;;24.45;40.07;101970.72;1764298;81;21076;-85
2022/05/08 04:54:32;;;;;;;31.48;12.03;;;;;;;24.97;37.86;101965.02;1774110;79;20979;-86
2022/05/08 04:56:58;;;;;;;30.20;11.90;;;;;;;25.26;37.06;101964.39;1804004;79;20970;-85
2022/05/08 04:59:23;;;;;;;27.98;12.73;;;;;;;25.59;36.58;101959.97;1803918;78;21611;-85
2022/05/08 05:01:49;;;;;;;32.78;12.58;;;;;;;26.03;35.01;101965.35;1804138;79;20966;-86
2022/05/08 05:04:15;;;;;;;27.85;11.68;;;;;;;26.41;34.78;101963.94;1803982;79;21592;-86
2022/05/08 05:06:42;;;;;;;25.15;11.85;;;;;;;27.08;34.21;101961.38;1803916;78;20938;-85
2022/05/08 05:09:08;;;;;;;31.60;12.58;;;;;;;27.55;33.60;101960.52;1803663;79;21006;-86
2022/05/08 05:11:33;;;;;;;25.00;12.28;;;;;;;27.87;32.84;101962.23;1803877;78;21292;-85
2022/05/08 05:13:59;;;;;;;32.65;12.65;;;;;;;27.79;31.85;101963.95;1804036;78;20884;-86
2022/05/08 05:16:25;;;;;;;24.87;12.30;;;;;;;28.20;31.18;101964.09;1803937;78;21054;-86
2022/05/08 05:18:51;;;;;;;27.93;12.05;;;;;;;28.79;31.30;101964.95;1803844;78;20954;-85
2022/05/08 05:21:17;;;;;;;33.15;11.97;;;;;;;29.58;30.37;101961.64;1803770;79;20856;-85
2022/05/08 05:23:43;;;;;;;25.60;12.63;;;;;;;29.43;28.20;101959.87;1803782;78;20863;-87
2022/05/08 05:26:09;;;;;;;28.20;12.10;;;;;;;29.67;28.88;101961.50;1803897;78;21534;-87
2022/05/08 05:28:35;;;;;;;25.12;12.07;;;;;;;29.96;28.35;101960.25;1803713;79;22477;-86
2022/05/08 05:31:02;;;;;;;35.20;12.73;;;;;;;30.69;28.43;101960.19;1803797;78;20999;-87
2022/05/08 05:33:28;;;;;;;24.75;11.73;;;;;;;31.20;27.25;101958.08;1803636;79;21085;-86
2022/05/08 05:35:54;;;;;;;24.75;12.40;;;;;;;30.92;26.06;101959.72;1803925;79;20931;-87
2022/05/08 05:38:20;;;;;;;37.23;13.28;;;;;;;30.77;26.33;101960.57;1803913;79;21042;-86
2022/05/08 05:40:46;;;;;;;25.23;13.35;;;;;;;30.81;25.44;101963.45;1808285;78;21805;-87
2022/05/08 05:43:12;;;;;;;32.05;13.00;;;;;;;30.03;25.96;101968.76;1803767;78;20914;-87
2022/05/08 05:45:39;;;;;;;31.15;12.63;;;;;;;30.36;25.73;101962.04;1804766;79;20943;-87
2022/05/08 05:48:06;;;;;;;27.70;12.78;;;;;;;30.25;26.05;101961.19;1798354;79;21012;-87
2022/05/08 05:50:33;;;;;;;31.02;11.70;;;;;;;31.05;26.21;101956.78;1808993;79;20997;-87
2022/05/08 05:53:00;;;;;;;23.27;11.12;;;;;;;31.48;24.52;101957.05;1808932;79;22339;-87
2022/05/08 05:55:26;;;;;;;27.52;11.50;;;;;;;31.23;24.31;101958.73;1809216;79;20945;-88
2022/05/08 05:57:51;;;;;;;27.20;10.98;;;;;;;31.13;24.58;101957.95;1809414;79;21582;-87
2022/05/08 06:00:20;;;;;;;27.22;11.65;;;;;;;31.43;24.30;101961.52;1809283;78;20868;-87
2022/05/08 06:02:47;;;;;;;23.00;11.15;;;;;;;32.26;23.85;101960.34;1809030;78;21481;-87
2022/05/08 06:05:14;;;;;;;27.60;11.50;;;;;;;32.54;23.64;101961.98;1808966;79;21095;-87
2022/05/08 06:07:42;;;;;;;25.02;11.05;;;;;;;33.05;23.14;101960.05;1808706;79;21018;-88
2022/05/08 06:10:10;;;;;;;27.45;11.08;;;;;;;33.76;23.74;101967.58;1808970;78;20957;-88
2022/05/08 06:12:37;;;;;;;28.55;10.75;;;;;;;34.00;22.33;101964.77;1809367;78;22292;-89
2022/05/08 06:15:05;;;;;;;23.30;9.70;;;;;;;33.82;22.19;101960.44;1809204;79;20926;-88
2022/05/08 06:17:31;;;;;;;22.90;9.30;;;;;;;34.33;22.17;101961.84;1808999;79;21274;-88
2022/05/08 06:19:57;;;;;;;21.10;8.60;;;;;;;34.24;20.61;101964.19;1809138;79;20932;-89
2022/05/08 06:22:22;;;;;;;24.35;9.53;;;;;;;34.23;21.25;101968.16;1809415;79;20881;-87
2022/05/08 06:24:48;;;;;;;18.98;9.95;;;;;;;34.60;20.48;101963.02;1809337;79;20924;-89
2022/05/08 06:27:14;;;;;;;19.90;8.25;;;;;;;34.48;20.81;101963.34;1809227;79;20980;-89
2022/05/08 06:29:40;;;;;;;26.07;8.08;;;;;;;34.78;20.82;101956.89;1809228;79;21423;-88
2022/05/08 06:32:08;;;;;;;17.45;7.85;;;;;;;35.38;19.79;101955.48;1809112;78;20923;-90
2022/05/08 06:34:34;;;;;;;21.40;7.83;;;;;;;35.42;19.74;101952.70;1809155;79;21028;-87
2022/05/08 06:37:00;;;;;;;16.12;6.80;;;;;;;35.85;19.21;101947.12;1809254;79;21001;-89
2022/05/08 06:39:26;;;;;;;14.35;6.70;;;;;;;36.20;18.27;101944.89;1809675;79;20960;-89
2022/05/08 06:41:52;;;;;;;18.32;6.60;;;;;;;36.00;18.21;101947.91;1809343;79;21112;-88
2022/05/08 06:44:18;;;;;;;15.90;6.47;;;;;;;36.63;17.80;101946.81;1809247;79;20941;-88
2022/05/08 06:46:44;;;;;;;10.23;4.78;;;;;;;36.39;17.28;101948.66;1813139;78;20956;-88
2022/05/08 06:49:10;;;;;;;14.05;4.28;;;;;;;36.28;16.72;101948.50;1814766;79;21003;-90
2022/05/08 06:51:36;;;;;;;11.20;5.47;;;;;;;36.87;16.54;101944.48;1814876;79;20965;-89
2022/05/08 06:54:03;;;;;;;9.23;4.65;;;;;;;37.90;16.28;101942.98;1814847;79;21028;-88
2022/05/08 06:56:31;;;;;;;14.58;5.72;;;;;;;38.49;15.92;101946.22;1814770;79;20968;-87
2022/05/08 07:01:44;;;;;;;12.40;5.22;;;;;;;37.98;15.67;101939.53;1814450;79;21000;-88
2022/05/08 07:04:12;;;;;;;12.98;5.50;;;;;;;37.97;15.46;101936.50;1814658;79;21023;-90
2022/05/08 07:06:39;;;;;;;17.15;5.22;;;;;;;37.81;15.17;101934.84;1814841;79;21108;-89
2022/05/08 07:09:07;;;;;;;16.75;4.15;;;;;;;37.09;15.83;101935.34;1814789;79;20858;-89
2022/05/08 07:11:33;;;;;;;14.50;4.78;;;;;;;37.66;15.30;101941.20;1814691;79;21520;-88
2022/05/08 07:14:01;;;;;;;10.60;4.58;;;;;;;38.26;15.01;101937.00;1814698;79;21100;-88
2022/05/08 07:16:27;;;;;;;11.38;4.65;;;;;;;38.90;14.56;101933.25;1814723;79;21024;-86
2022/05/08 07:18:54;;;;;;;13.45;4.85;;;;;;;39.55;15.15;101928.23;1814964;79;21058;-88
2022/05/08 07:21:20;;;;;;;13.65;5.05;;;;;;;40.28;14.40;101935.02;1814707;79;20956;-89
2022/05/08 07:23:47;;;;;;;10.40;4.62;;;;;;;39.91;14.15;101934.06;1787047;79;21499;-89
2022/05/08 07:26:15;;;;;;;7.62;4.10;;;;;;;39.35;13.65;101936.62;1814705;79;20980;-88
2022/05/08 07:28:42;;;;;;;10.98;4.50;;;;;;;38.90;13.90;101937.48;1814680;79;21013;-90
2022/05/08 07:31:08;;;;;;;21.95;5.72;;;;;;;38.22;13.92;101940.48;1814704;79;21778;-89
2022/05/08 07:33:38;;;;;;;13.10;4.55;;;;;;;38.50;13.98;101939.36;1814702;79;21007;-89
2022/05/08 07:36:12;;;;;;;10.07;3.50;;;;;;;38.96;13.89;101932.97;1815038;79;21047;-89
2022/05/08 07:38:43;;;;;;;10.28;3.10;;;;;;;39.17;12.97;101931.23;1814450;79;20992;-88
2022/05/08 07:41:10;;;;;;;8.53;3.37;;;;;;;38.92;12.82;101929.41;1814882;79;21062;-90
2022/05/08 07:43:37;;;;;;;6.47;3.65;;;;;;;38.82;12.59;101929.08;1814830;79;21109;-89
2022/05/08 07:46:04;;;;;;;7.75;3.50;;;;;;;38.32;12.53;101924.05;1814324;78;21004;-88
2022/05/08 07:48:30;;;;;;;8.03;4.17;;;;;;;37.56;12.58;101920.98;1814809;79;20949;-88
2022/05/08 07:50:59;;;;;;;11.43;4.10;;;;;;;37.67;13.19;101925.30;1814737;79;20962;-90
2022/05/08 07:53:30;;;;;;;10.93;3.60;;;;;;;38.23;13.34;101920.94;1814463;79;20917;-90
2022/05/08 07:55:57;;;;;;;6.17;3.63;;;;;;;38.60;12.91;101920.74;1814952;79;21064;-89
2022/05/08 07:58:27;;;;;;;9.95;3.95;;;;;;;38.41;12.66;101916.53;1814633;77;21414;-88
2022/05/08 08:00:57;;;;;;;5.50;3.45;;;;;;;38.02;13.05;101910.72;1814266;78;20999;-89
2022/05/08 08:03:28;;;;;;;10.68;4.00;;;;;;;38.49;13.02;101915.84;1814775;79;21017;-89
2022/05/08 08:05:56;;;;;;;10.70;4.70;;;;;;;38.92;13.46;101909.67;1814772;79;20980;-89
2022/05/08 08:08:25;;;;;;;12.40;4.22;;;;;;;39.55;13.04;101902.05;1814599;79;21882;-88
2022/05/08 08:10:53;;;;;;;7.92;4.00;;;;;;;39.73;12.83;101899.69;1814421;79;20983;-88
2022/05/08 08:13:23;;;;;;;9.83;3.95;;;;;;;40.12;13.27;101891.93;1814720;79;20945;-89
2022/05/08 08:15:50;;;;;;;7.55;3.87;;;;;;;40.82;12.85;101905.63;1814774;77;21047;-89
2022/05/08 08:18:18;;;;;;;11.90;4.33;;;;;;;40.87;12.43;101896.62;1814768;79;21059;-89
2022/05/08 08:20:45;;;;;;;11.48;5.90;;;;;;;40.92;12.13;101890.45;1814235;79;21046;-88
2022/05/08 08:23:12;;;;;;;10.70;5.45;;;;;;;40.66;11.68;101892.88;1814643;79;21484;-88
2022/05/08 08:25:39;;;;;;;8.03;4.95;;;;;;;39.12;11.63;101895.03;1814649;79;20961;-87
2022/05/08 08:28:06;;;;;;;10.48;5.10;;;;;;;38.43;11.78;101890.16;1786733;79;20984;-87
2022/05/08 08:30:32;;;;;;;27.77;5.78;;;;;;;36.61;11.91;101897.44;1814863;79;20992;-86
2022/05/08 08:33:00;;;;;;;13.10;5.58;;;;;;;34.71;12.75;101904.23;1814863;79;21009;-87
2022/05/08 08:35:27;;;;;;;18.55;7.87;;;;;;;34.47;13.36;101888.91;1814184;79;21055;-88
2022/05/08 08:37:53;;;;;;;16.97;6.97;;;;;;;35.30;13.08;101898.39;1814767;79;21050;-87
2022/05/08 08:40:20;;;;;;;16.73;7.35;;;;;;;35.51;12.81;101885.80;1814683;79;20969;-87
2022/05/08 08:42:47;;;;;;;13.03;6.83;;;;;;;35.88;12.82;101890.20;1814486;79;21031;-86
2022/05/08 08:48:08;;;;;;;14.55;7.03;;;;;;;36.18;13.34;101880.53;1814194;79;21027;-88
2022/05/08 08:50:35;;;;;;;18.90;8.28;;;;;;;36.58;14.08;101878.59;1814528;79;20994;-89
2022/05/08 08:53:05;;;;;;;16.30;6.78;;;;;;;36.99;13.45;101872.95;1814754;79;20941;-86
2022/05/08 08:55:32;;;;;;;13.88;6.60;;;;;;;37.27;13.60;101876.20;1806220;79;21038;-87
2022/05/08 08:58:00;;;;;;;17.05;8.43;;;;;;;37.69;13.50;101876.44;1806420;79;21183;-87
2022/05/08 09:00:27;;;;;;;22.90;9.35;;;;;;;38.09;13.13;101870.41;1805885;79;21007;-87
2022/05/08 09:02:55;;;;;;;13.83;8.05;;;;;;;38.23;12.97;101868.05;1806041;79;21515;-87
2022/05/08 09:05:24;;;;;;;17.75;9.20;;;;;;;38.60;13.10;101867.99;1806054;79;21594;-86
2022/05/08 09:07:53;;;;;;;18.65;10.25;;;;;;;38.37;12.77;101870.08;1806146;79;20968;-88
2022/05/08 09:10:26;;;;;;;19.25;8.63;;;;;;;38.12;12.88;101865.34;1719973;83;21051;-87
2022/05/08 09:13:01;;;;;;;18.70;8.70;;;;;;;38.12;13.23;101863.94;1665764;86;21054;-87
2022/05/08 09:15:37;;;;;;;17.27;9.63;;;;;;;38.10;13.02;101866.41;1666159;86;21081;-88
2022/05/08 09:18:10;;;;;;;16.87;9.25;;;;;;;37.72;12.71;101864.35;1637923;87;21078;-88
2022/05/08 09:20:43;;;;;;;22.17;9.28;;;;;;;37.36;12.96;101856.84;1638028;87;20970;-88
2022/05/08 09:23:16;;;;;;;19.82;9.73;;;;;;;37.40;13.42;101856.19;1637865;87;21149;-88
2022/05/08 09:31:16;;;;;;;29.30;12.70;;;;;;;37.45;13.57;101860.58;1504408;95;21574;-87
2022/05/08 09:33:48;;;;;;;27.20;11.83;;;;;;;37.35;13.40;101856.63;1504487;95;21026;-87
2022/05/08 09:38:56;;;;;;;22.45;10.70;;;;;;;36.81;13.30;101849.17;1384508;102;21141;-87
2022/05/08 09:41:28;;;;;;;26.90;11.50;;;;;;;35.32;13.34;101851.14;1384978;102;21071;-87
2022/05/08 09:44:13;;;;;;;27.95;12.53;;;;;;;34.66;14.54;101855.62;1384782;103;21171;-86
2022/05/08 09:46:45;;;;;;;33.75;13.40;;;;;;;34.56;14.35;101845.97;1384193;103;21609;-87
2022/05/08 09:49:22;;;;;;;32.98;15.78;;;;;;;34.43;14.96;101851.11;1381702;102;21251;-86
2022/05/08 09:51:49;;;;;;;33.50;14.50;;;;;;;34.39;15.00;101850.30;1336615;105;21722;-87
2022/05/08 09:54:17;;;;;;;39.45;16.85;;;;;;;34.35;15.14;101848.07;1333257;107;21330;-87
2022/05/08 09:56:45;;;;;;;41.30;18.17;;;;;;;34.05;14.62;101849.73;1334064;107;21260;-85
2022/05/08 09:59:13;;;;;;;46.65;19.23;;;;;;;33.55;15.13;101843.78;1334648;107;21229;-87
2022/05/08 10:01:42;;;;;;;41.60;20.27;;;;;;;33.48;15.75;101846.70;1334434;107;21982;-87
2022/05/08 10:04:08;;;;;;;33.92;15.18;;;;;;;33.64;15.46;101839.45;1334282;107;21701;-86
2022/05/08 10:06:38;;;;;;;35.13;15.90;;;;;;;33.31;15.04;101844.56;1341328;104;21254;-86
2022/05/08 10:14:35;;;;;;;40.33;18.00;;;;;;;32.83;15.91;101838.06;1372200;104;21141;-87
2022/05/08 10:17:04;;;;;;;47.85;21.48;;;;;;;32.85;16.04;101831.51;1412886;100;21318;-87
2022/05/08 10:19:36;;;;;;;44.05;21.62;;;;;;;32.91;16.01;101832.77;1418339;99;21154;-85
2022/05/08 10:22:09;;;;;;;46.30;23.87;;;;;;;32.64;15.79;101828.70;1418308;100;21682;-84
2022/05/08 10:24:38;;;;;;;38.78;18.50;;;;;;;32.46;16.12;101824.30;1421704;98;21230;-86
2022/05/08 10:27:32;;;;;;;38.95;18.07;;;;;;;32.24;15.88;101818.20;1456749;97;21116;-86
2022/05/08 10:30:06;;;;;;;42.67;18.37;;;;;;;32.11;15.84;101813.47;1497241;95;21047;-86
2022/05/08 10:32:46;;;;;;;52.50;21.37;;;;;;;31.82;15.70;101815.02;1506175;94;21062;-86
2022/05/08 10:35:22;;;;;;;50.85;24.37;;;;;;;31.36;16.10;101811.75;1624646;78;21066;-86
2022/05/08 10:38:08;;;;;;;56.85;24.70;;;;;;;31.39;16.72;101812.98;1814558;78;21047;-85
2022/05/08 10:40:37;;;;;;;55.45;27.32;;;;;;;31.47;17.01;101799.36;1812243;79;21204;-87
2022/05/08 10:43:25;;;;;;;56.42;26.93;;;;;;;31.54;16.84;101798.69;1812227;79;20976;-87
2022/05/08 10:45:47;;;;;;;60.60;26.90;;;;;;;31.42;17.02;101795.52;1808520;79;20969;-86
2022/05/08 10:48:16;;;;;;;57.43;27.00;;;;;;;31.16;16.88;101797.05;1814430;79;21602;-87
2022/05/08 10:50:54;;;;;;;59.27;26.70;;;;;;;31.08;16.97;101797.30;1814980;78;20977;-87
2022/05/08 10:53:29;;;;;;;60.58;26.55;;;;;;;30.97;17.44;101792.92;1814863;78;21503;-86
2022/05/08 10:56:06;;;;;;;62.80;28.17;;;;;;;30.98;17.63;101791.77;1816912;78;21003;-87
2022/05/08 10:58:34;;;;;;;66.33;27.32;;;;;;;31.07;16.41;101786.75;1815133;78;21120;-85
2022/05/08 11:01:03;;;;;;;69.47;32.08;;;;;;;30.73;16.69;101783.72;1814925;78;21024;-86
2022/05/08 11:03:30;;;;;;;72.62;33.23;;;;;;;30.69;17.18;101786.23;1814827;78;21497;-86
2022/05/08 11:05:57;;;;;;;70.00;35.17;;;;;;;30.57;16.85;101780.25;1815046;78;21047;-86
2022/05/08 11:08:29;;;;;;;63.42;30.27;;;;;;;30.43;17.30;101777.98;1791998;79;20913;-86
2022/05/08 11:11:07;;;;;;;69.67;31.80;;;;;;;30.52;16.60;101772.19;1815030;78;20925;-88
2022/05/08 11:13:46;;;;;;;69.87;32.98;;;;;;;30.43;16.69;101773.81;1814632;79;20973;-86
2022/05/08 11:16:16;;;;;;;66.92;29.85;;;;;;;30.33;16.13;101773.02;1814904;79;21089;-86
2022/05/08 11:18:43;;;;;;;67.27;30.85;;;;;;;30.18;16.62;101767.73;1817417;78;21794;-87
2022/05/08 11:21:09;;;;;;;64.72;29.05;;;;;;;29.96;16.74;101767.84;1814778;78;20965;-86
2022/05/08 11:26:14;;;;;;;63.85;30.00;;;;;;;29.70;17.11;101764.28;1705091;82;21113;-86
2022/05/08 11:28:52;;;;;;;62.65;29.75;;;;;;;29.79;17.64;101764.09;1743959;82;21104;-85
2022/05/08 11:31:19;;;;;;;62.80;29.87;;;;;;;30.01;17.80;101758.42;1744107;82;21087;-85
2022/05/08 11:36:35;;;;;;;58.92;27.02;;;;;;;30.51;17.93;101748.34;1743682;82;21068;-86
2022/05/08 11:39:08;;;;;;;50.65;24.85;;;;;;;30.65;17.65;101740.25;1691092;83;21696;-86
2022/05/08 11:41:44;;;;;;;54.53;25.97;;;;;;;30.56;17.21;101738.27;1687932;83;21585;-86
2022/05/08 11:46:55;;;;;;;62.38;27.25;;;;;;;30.44;17.96;101731.48;1651304;86;21067;-84
2022/05/08 11:49:31;;;;;;;55.85;26.27;;;;;;;30.53;17.50;101734.84;1646271;87;21173;-85
2022/05/08 11:52:01;;;;;;;50.23;24.50;;;;;;;30.40;17.17;101730.62;1624833;88;21087;-87
2022/05/08 11:54:33;;;;;;;52.03;23.20;;;;;;;30.18;17.13;101723.23;1624532;88;21554;-86
2022/05/08 11:57:21;;;;;;;60.77;25.37;;;;;;;30.27;17.88;101723.03;1625059;88;21123;-86
2022/05/08 12:00:10;;;;;;;53.98;24.60;;;;;;;30.43;17.81;101716.78;1624623;88;21108;-85